Time;durP1;ratioP1;P1;durP2;ratioP2;P2;SDS_P1;SDS_P2;PMS_P1;PMS_P2;Temp;Humidity;BMP_temperature;BMP_pressure;BME280_temperature;BME280_humidity;BME280_pressure;Samples;Min_cycle;Max_cycle;Signal;HPM_P1;HPM_P2
2021/04/18 00:01:29;;;;;;;5.03;2.47;;;;;;;8.21;80.91;101507.38;4900992;29;20279;-74
2021/04/18 00:03:56;;;;;;;6.83;2.90;;;;;;;8.28;80.14;101499.16;4917516;29;20202;-74
2021/04/18 00:06:26;;;;;;;4.67;2.70;;;;;;;8.19;79.32;101498.69;4916349;29;20254;-77
2021/04/18 00:08:54;;;;;;;4.07;2.53;;;;;;;8.28;80.16;101497.28;4918005;29;20192;-74
2021/04/18 00:11:20;;;;;;;4.87;2.60;;;;;;;8.23;80.59;101499.84;4902184;29;20251;-76
2021/04/18 00:13:52;;;;;;;4.50;2.50;;;;;;;8.27;80.23;101500.22;4889424;29;20191;-74
2021/04/18 00:16:22;;;;;;;6.43;2.73;;;;;;;8.25;80.67;101489.63;4918634;29;20266;-76
2021/04/18 00:18:49;;;;;;;6.27;2.90;;;;;;;8.31;80.64;101485.94;4904701;29;20231;-75
2021/04/18 00:21:19;;;;;;;4.67;2.70;;;;;;;8.22;80.86;101494.66;4918904;29;20246;-74
2021/04/18 00:23:46;;;;;;;3.50;2.70;;;;;;;8.31;81.15;101488.66;4903973;29;20183;-74
2021/04/18 00:26:12;;;;;;;6.13;2.70;;;;;;;8.46;82.19;101488.97;4903069;29;20310;-75
2021/04/18 00:28:41;;;;;;;5.73;2.53;;;;;;;8.53;81.76;101489.69;4904725;29;20255;-75
2021/04/18 00:31:08;;;;;;;6.37;3.53;;;;;;;8.34;83.91;101485.50;4887074;29;20278;-75
2021/04/18 00:33:37;;;;;;;5.10;2.40;;;;;;;8.32;84.78;101482.19;4902972;29;20195;-75
2021/04/18 00:36:04;;;;;;;5.00;2.80;;;;;;;8.23;85.89;101477.38;4918553;29;20352;-74
2021/04/18 00:38:34;;;;;;;4.47;2.60;;;;;;;8.08;88.04;101480.53;4903353;29;20223;-74
2021/04/18 00:41:00;;;;;;;4.67;2.60;;;;;;;7.88;91.17;101473.03;4917770;29;20286;-74
2021/04/18 00:43:29;;;;;;;7.10;2.63;;;;;;;7.87;92.54;101482.19;4902733;29;20199;-75
2021/04/18 00:45:59;;;;;;;5.40;3.00;;;;;;;7.91;93.58;101488.75;4903202;29;20235;-74
2021/04/18 00:48:29;;;;;;;5.93;2.90;;;;;;;7.95;94.06;101484.53;4920262;29;20179;-76
2021/04/18 00:50:55;;;;;;;5.33;2.90;;;;;;;7.91;94.58;101477.94;4919994;29;20231;-75
2021/04/18 00:53:22;;;;;;;7.87;2.77;;;;;;;8.04;93.47;101463.13;4904273;29;20207;-75
2021/04/18 00:55:51;;;;;;;4.93;2.33;;;;;;;8.18;93.08;101464.56;4913030;29;20243;-75
2021/04/18 00:58:18;;;;;;;6.53;2.70;;;;;;;8.19;94.76;101476.22;4905014;29;20243;-77
2021/04/18 01:00:44;;;;;;;7.17;2.93;;;;;;;8.14;95.62;101479.63;4903337;29;20231;-75
2021/04/18 01:03:11;;;;;;;6.93;3.00;;;;;;;8.24;95.66;101474.44;4904136;29;20274;-74
2021/04/18 01:05:40;;;;;;;4.63;2.90;;;;;;;8.00;96.42;101484.66;4903185;29;20302;-75
2021/04/18 01:08:09;;;;;;;7.10;3.07;;;;;;;8.16;95.67;101476.69;4905927;29;20183;-76
2021/04/18 01:10:40;;;;;;;4.07;2.83;;;;;;;8.26;96.28;101468.78;4918427;29;20231;-75
2021/04/18 01:13:09;;;;;;;6.20;3.20;;;;;;;8.07;97.12;101468.06;4889080;29;20188;-74
2021/04/18 01:15:38;;;;;;;4.97;3.03;;;;;;;7.99;97.75;101464.09;4902874;29;20219;-73
2021/04/18 01:18:05;;;;;;;7.17;3.30;;;;;;;7.95;98.53;101471.00;4905296;29;20184;-75
2021/04/18 01:20:32;;;;;;;5.50;3.27;;;;;;;7.95;98.41;101468.28;4902272;29;20239;-74
2021/04/18 01:23:14;;;;;;;5.57;3.07;;;;;;;7.99;98.09;101464.91;4907014;29;20876;-74
2021/04/18 01:25:59;;;;;;;5.47;3.13;;;;;;;8.15;98.07;101459.63;4921821;29;20298;-74
2021/04/18 01:28:28;;;;;;;7.03;3.20;;;;;;;8.11;98.25;101461.16;4921868;29;20184;-74
2021/04/18 01:30:55;;;;;;;6.07;3.57;;;;;;;7.97;98.43;101460.78;4920532;29;20239;-74
2021/04/18 01:33:21;;;;;;;6.67;3.57;;;;;;;7.90;99.02;101460.91;4889894;29;20192;-75
2021/04/18 01:35:49;;;;;;;5.90;3.43;;;;;;;7.94;100.00;101463.97;4921512;29;20234;-74
2021/04/18 01:38:15;;;;;;;5.97;3.60;;;;;;;7.95;100.00;101457.47;4923895;29;20195;-74
2021/04/18 01:40:43;;;;;;;5.90;3.60;;;;;;;8.08;99.82;101456.19;4908333;29;20223;-74
2021/04/18 01:43:16;;;;;;;8.47;4.07;;;;;;;7.99;99.56;101464.09;4925754;29;20325;-75
2021/04/18 01:45:43;;;;;;;8.77;4.00;;;;;;;8.03;99.36;101457.94;4909012;29;20234;-76
2021/04/18 01:48:11;;;;;;;4.23;3.77;;;;;;;8.06;99.23;101450.19;4910597;29;20203;-75
2021/04/18 01:50:43;;;;;;;5.87;3.70;;;;;;;7.99;99.76;101453.25;4910185;29;20231;-75
2021/04/18 01:53:09;;;;;;;5.17;3.77;;;;;;;8.13;100.00;101452.78;4909808;29;20227;-74
2021/04/18 01:55:37;;;;;;;6.27;3.80;;;;;;;8.01;99.20;101451.16;4910281;29;20239;-74
2021/04/18 01:58:06;;;;;;;7.17;4.10;;;;;;;8.02;99.74;101450.06;4924826;29;20299;-74
2021/04/18 02:00:49;;;;;;;7.83;3.87;;;;;;;8.05;99.06;101447.72;4919317;29;20239;-74
2021/04/18 02:03:16;;;;;;;5.87;3.40;;;;;;;8.08;98.42;101441.84;4888377;29;20238;-73
2021/04/18 02:05:44;;;;;;;6.10;3.70;;;;;;;7.99;98.87;101450.56;4919632;29;20761;-74
2021/04/18 02:08:20;;;;;;;8.33;4.00;;;;;;;7.90;98.91;101451.97;4892161;29;20188;-74
2021/04/18 02:10:52;;;;;;;8.27;3.90;;;;;;;7.84;99.59;101452.91;4890440;29;20235;-72
2021/04/18 02:13:21;;;;;;;6.17;3.60;;;;;;;7.81;99.25;101456.06;4904326;29;20183;-75
2021/04/18 02:16:08;;;;;;;8.67;3.90;;;;;;;7.84;99.32;101452.91;4889693;29;20251;-73
2021/04/18 02:18:43;;;;;;;5.47;3.40;;;;;;;7.78;100.00;101462.78;4890832;29;20216;-75
2021/04/18 02:21:09;;;;;;;7.93;4.00;;;;;;;7.84;100.00;101461.03;4918848;29;20231;-75
2021/04/18 02:23:36;;;;;;;9.80;4.07;;;;;;;7.99;100.00;101459.50;4887669;29;20255;-75
2021/04/18 02:26:03;;;;;;;9.87;4.70;;;;;;;8.04;100.00;101455.03;4918567;29;20247;-75
2021/04/18 02:28:30;;;;;;;9.03;4.47;;;;;;;7.83;100.00;101459.38;4903978;29;20192;-75
2021/04/18 02:31:00;;;;;;;5.90;3.83;;;;;;;7.81;100.00;101456.06;4888275;29;20258;-74
2021/04/18 02:33:40;;;;;;;7.57;4.00;;;;;;;7.82;100.00;101446.88;4890553;29;20207;-74
2021/04/18 02:36:08;;;;;;;10.13;4.83;;;;;;;7.69;100.00;101447.97;4904221;29;20267;-74
2021/04/18 02:38:35;;;;;;;6.23;4.50;;;;;;;7.63;100.00;101447.25;4888979;29;20219;-75
2021/04/18 02:41:03;;;;;;;8.90;4.43;;;;;;;7.51;100.00;101444.53;4888039;29;20620;-74
2021/04/18 02:43:29;;;;;;;8.50;4.73;;;;;;;7.45;100.00;101440.03;4901652;29;20188;-74
2021/04/18 02:45:56;;;;;;;6.23;4.53;;;;;;;7.42;100.00;101448.63;4919589;29;20731;-74
2021/04/18 02:48:27;;;;;;;9.63;4.73;;;;;;;7.47;100.00;101451.47;4903317;29;20216;-75
2021/04/18 02:50:55;;;;;;;8.80;4.90;;;;;;;7.34;100.00;101456.25;4902392;29;20235;-73
2021/04/18 02:53:25;;;;;;;11.47;5.07;;;;;;;7.36;100.00;101448.72;4903378;29;20280;-73
2021/04/18 02:55:54;;;;;;;8.73;4.97;;;;;;;7.34;100.00;101448.97;4903220;29;20224;-73
2021/04/18 02:58:35;;;;;;;9.90;4.73;;;;;;;7.30;100.00;101447.78;4908384;29;20247;-75
2021/04/18 03:01:02;;;;;;;11.63;5.40;;;;;;;7.10;100.00;101445.63;4934296;28;20247;-74
2021/04/18 03:03:30;;;;;;;14.73;5.47;;;;;;;7.05;100.00;101453.56;4903749;29;20199;-75
2021/04/18 03:05:58;;;;;;;10.07;5.60;;;;;;;7.02;100.00;101443.25;4902806;29;20315;-74
2021/04/18 03:08:27;;;;;;;9.67;5.57;;;;;;;7.07;100.00;101446.06;4889810;29;20187;-76
2021/04/18 03:10:54;;;;;;;11.80;5.80;;;;;;;7.04;100.00;101441.16;4902713;29;20231;-73
2021/04/18 03:13:24;;;;;;;8.77;5.37;;;;;;;7.02;100.00;101445.94;4899943;29;20628;-73
2021/04/18 03:15:56;;;;;;;8.93;5.80;;;;;;;7.00;100.00;101450.75;4903237;29;20227;-74
2021/04/18 03:18:23;;;;;;;10.43;5.87;;;;;;;6.90;100.00;101443.22;4903370;29;20212;-73
2021/04/18 03:20:51;;;;;;;10.60;5.90;;;;;;;6.92;100.00;101456.47;4902346;29;20314;-73
2021/04/18 03:23:22;;;;;;;11.13;6.30;;;;;;;7.02;100.00;101451.34;4917734;29;20194;-75
2021/04/18 03:25:52;;;;;;;11.33;5.70;;;;;;;6.99;100.00;101454.50;4902729;29;20240;-75
2021/04/18 03:28:23;;;;;;;9.47;6.23;;;;;;;6.86;100.00;101453.88;4904608;29;20278;-73
2021/04/18 03:30:53;;;;;;;12.37;6.80;;;;;;;6.86;100.00;101443.88;4903157;29;20254;-74
2021/04/18 03:33:24;;;;;;;11.40;6.60;;;;;;;6.80;100.00;101455.59;4903225;29;20198;-74
2021/04/18 03:36:01;;;;;;;12.97;6.17;;;;;;;6.76;100.00;101449.03;4903250;29;20231;-75
2021/04/18 03:38:31;;;;;;;12.80;6.83;;;;;;;6.73;100.00;101457.56;4904230;29;20224;-75
2021/04/18 03:40:58;;;;;;;13.47;6.63;;;;;;;6.74;100.00;101452.97;4917927;29;20232;-74
2021/04/18 03:43:25;;;;;;;12.53;7.23;;;;;;;6.60;100.00;101449.63;4934081;29;20180;-74
2021/04/18 03:46:01;;;;;;;14.73;7.00;;;;;;;6.53;100.00;101448.88;4903146;29;20235;-74
2021/04/18 03:48:38;;;;;;;12.20;6.87;;;;;;;6.50;100.00;101443.13;4920650;29;20555;-75
2021/04/18 03:51:08;;;;;;;12.43;7.03;;;;;;;6.49;100.00;101443.38;4918002;29;20323;-74
2021/04/18 03:53:46;;;;;;;10.90;7.17;;;;;;;6.50;100.00;101443.13;4904390;29;20195;-75
2021/04/18 03:56:17;;;;;;;13.47;8.70;;;;;;;6.51;100.00;101440.19;4903203;29;20307;-75
2021/04/18 03:58:47;;;;;;;12.97;7.37;;;;;;;6.50;100.00;101442.31;4904684;29;20246;-75
2021/04/18 04:01:20;;;;;;;16.13;8.27;;;;;;;6.50;100.00;101442.31;4903318;29;20228;-73
2021/04/18 04:03:48;;;;;;;12.47;7.53;;;;;;;6.47;100.00;101448.19;4903601;29;20199;-73
2021/04/18 04:06:17;;;;;;;12.67;7.27;;;;;;;6.51;100.00;101452.88;4903645;29;20238;-75
2021/04/18 04:08:50;;;;;;;13.17;7.90;;;;;;;6.46;100.00;101446.50;4906938;29;20195;-73
2021/04/18 04:11:21;;;;;;;16.10;8.03;;;;;;;6.42;100.00;101453.41;4905875;29;20258;-74
2021/04/18 04:13:55;;;;;;;16.30;7.67;;;;;;;6.42;100.00;101448.84;4906611;29;20211;-75
2021/04/18 04:16:27;;;;;;;11.27;7.47;;;;;;;6.43;100.00;101453.19;4935973;29;20231;-73
2021/04/18 04:18:56;;;;;;;14.13;7.83;;;;;;;6.45;100.00;101459.19;4904581;29;20226;-75
2021/04/18 04:22:00;;;;;;;14.30;7.63;;;;;;;6.48;100.00;101455.19;4921474;29;20289;-74
2021/04/18 04:24:50;;;;;;;12.90;7.70;;;;;;;6.48;100.00;101460.59;4934630;29;20199;-75
2021/04/18 04:27:19;;;;;;;15.43;7.40;;;;;;;6.47;100.00;101453.56;4902549;29;20713;-74
2021/04/18 04:29:48;;;;;;;15.17;8.53;;;;;;;6.51;100.00;101455.56;4902965;29;20582;-77
2021/04/18 04:32:15;;;;;;;15.00;8.37;;;;;;;6.40;100.00;101458.22;4900565;29;20242;-75
2021/04/18 04:34:41;;;;;;;16.07;8.30;;;;;;;6.43;100.00;101469.38;4902409;29;20183;-74
2021/04/18 04:37:10;;;;;;;15.33;8.60;;;;;;;6.37;100.00;101470.25;4909760;29;20258;-74
2021/04/18 04:39:37;;;;;;;13.40;7.77;;;;;;;6.48;100.00;101464.13;4903026;29;20231;-74
2021/04/18 04:42:04;;;;;;;11.60;7.60;;;;;;;6.52;100.00;101460.75;4900005;29;20286;-73
2021/04/18 04:44:30;;;;;;;17.73;8.00;;;;;;;6.50;100.00;101470.09;4902189;29;20195;-75
2021/04/18 04:46:57;;;;;;;16.17;8.77;;;;;;;6.56;100.00;101464.66;4900462;29;20308;-74
2021/04/18 04:49:24;;;;;;;11.90;7.73;;;;;;;6.66;100.00;101474.91;4902401;29;20275;-74
2021/04/18 04:51:51;;;;;;;12.20;7.77;;;;;;;6.72;100.00;101474.81;4931186;29;20227;-75
2021/04/18 04:54:19;;;;;;;13.27;7.80;;;;;;;6.82;100.00;101475.09;4903197;29;20223;-75
2021/04/18 04:56:54;;;;;;;14.60;8.00;;;;;;;6.71;100.00;101467.78;4887594;29;20306;-74
2021/04/18 04:59:21;;;;;;;14.33;7.53;;;;;;;6.79;100.00;101469.31;4886132;29;20693;-76
2021/04/18 05:01:55;;;;;;;12.93;7.60;;;;;;;6.77;100.00;101466.84;4899133;29;20314;-75
2021/04/18 05:04:21;;;;;;;11.53;7.60;;;;;;;6.69;100.00;101469.88;4901836;29;20278;-74
2021/04/18 05:06:52;;;;;;;13.40;7.93;;;;;;;6.80;100.00;101471.81;4915539;29;20731;-75
2021/04/18 05:09:21;;;;;;;10.87;7.77;;;;;;;6.94;100.00;101475.97;4902496;29;20187;-74
2021/04/18 05:11:48;;;;;;;15.50;8.17;;;;;;;7.01;100.00;101479.41;4915898;29;20239;-74
2021/04/18 05:14:15;;;;;;;14.30;7.60;;;;;;;7.07;100.00;101481.19;4932990;29;20193;-74
2021/04/18 05:16:41;;;;;;;13.97;7.63;;;;;;;7.03;100.00;101483.53;4916174;29;20220;-75
2021/04/18 05:19:08;;;;;;;14.63;8.27;;;;;;;6.91;100.00;101485.34;4914199;29;20298;-75
2021/04/18 05:21:34;;;;;;;17.17;8.30;;;;;;;6.86;100.00;101480.88;4890572;29;20298;-76
2021/04/18 05:24:01;;;;;;;16.27;7.77;;;;;;;6.86;100.00;101484.38;4900851;29;20674;-74
2021/04/18 05:26:30;;;;;;;15.93;8.07;;;;;;;6.87;100.00;101483.34;4901326;29;20294;-75
2021/04/18 05:28:56;;;;;;;11.87;7.87;;;;;;;6.95;100.00;101480.31;4901532;29;20192;-73
2021/04/18 05:31:27;;;;;;;11.30;7.10;;;;;;;7.12;100.00;101484.03;4915734;29;20755;-74
2021/04/18 05:33:54;;;;;;;14.80;7.20;;;;;;;7.17;100.00;101490.38;4900381;29;20198;-73
2021/04/18 05:36:21;;;;;;;14.67;7.63;;;;;;;7.23;100.00;101484.06;4900481;29;20231;-74
2021/04/18 05:38:51;;;;;;;13.87;7.80;;;;;;;7.34;100.00;101481.41;4916825;29;20216;-75
2021/04/18 05:41:17;;;;;;;12.20;7.67;;;;;;;7.19;100.00;101492.88;4882561;29;20228;-75
2021/04/18 05:43:44;;;;;;;12.63;7.63;;;;;;;7.31;100.00;101487.25;4900532;29;20278;-74
2021/04/18 05:46:10;;;;;;;12.70;7.23;;;;;;;7.42;100.00;101489.16;4899701;29;20231;-73
2021/04/18 05:48:39;;;;;;;11.20;6.60;;;;;;;7.44;100.00;101481.66;4901361;29;20187;-74
2021/04/18 05:51:09;;;;;;;11.40;6.70;;;;;;;7.39;100.00;101478.81;4899345;29;20274;-75
2021/04/18 05:53:40;;;;;;;13.07;7.17;;;;;;;7.46;100.00;101484.94;4900091;29;20188;-74
2021/04/18 05:56:09;;;;;;;14.70;6.93;;;;;;;7.56;100.00;101481.66;4915284;29;20723;-76
2021/04/18 05:58:36;;;;;;;10.47;6.10;;;;;;;7.63;100.00;101482.41;4901005;29;20282;-76
2021/04/18 06:01:03;;;;;;;9.73;6.37;;;;;;;7.66;100.00;101479.25;4893380;29;20228;-74
2021/04/18 06:03:33;;;;;;;10.47;6.30;;;;;;;7.65;100.00;101481.09;4895031;29;20223;-74
2021/04/18 06:05:59;;;;;;;10.27;6.27;;;;;;;7.64;100.00;101474.06;4881184;29;20283;-75
2021/04/18 06:08:26;;;;;;;12.17;7.00;;;;;;;7.68;100.00;101483.34;4882725;29;20185;-74
2021/04/18 06:10:53;;;;;;;9.77;6.07;;;;;;;7.65;100.00;101482.97;4896605;29;20247;-75
2021/04/18 06:13:20;;;;;;;10.67;6.47;;;;;;;7.79;100.00;101475.25;4881487;29;20197;-75
2021/04/18 06:15:47;;;;;;;9.50;5.93;;;;;;;7.80;100.00;101478.75;4896212;29;20755;-74
2021/04/18 06:18:14;;;;;;;9.33;5.80;;;;;;;8.03;100.00;101472.28;4882084;29;20208;-74
2021/04/18 06:20:40;;;;;;;10.53;6.30;;;;;;;7.99;100.00;101472.19;4880118;29;20314;-75
2021/04/18 06:23:07;;;;;;;12.43;5.90;;;;;;;7.81;100.00;101477.72;4881221;29;20224;-73
2021/04/18 06:25:34;;;;;;;9.90;5.80;;;;;;;7.83;100.00;101481.00;4868186;29;20315;-74
2021/04/18 06:28:00;;;;;;;9.70;6.40;;;;;;;8.03;100.00;101466.06;4870431;29;20188;-74
2021/04/18 06:30:28;;;;;;;11.13;6.07;;;;;;;8.25;100.00;101465.25;4885568;29;20758;-75
2021/04/18 06:32:54;;;;;;;9.80;5.80;;;;;;;8.19;100.00;101466.22;4904498;29;20199;-77
2021/04/18 06:35:23;;;;;;;10.20;5.60;;;;;;;8.21;100.00;101461.38;4903349;28;20416;-74
2021/04/18 06:37:49;;;;;;;15.47;6.00;;;;;;;8.45;100.00;101465.69;4904602;29;20622;-73
2021/04/18 06:40:25;;;;;;;12.03;5.73;;;;;;;8.66;100.00;101467.75;4903262;28;20318;-74
2021/04/18 06:42:56;;;;;;;8.83;5.30;;;;;;;8.65;98.48;101466.94;4904149;29;20195;-74
2021/04/18 06:45:23;;;;;;;8.83;5.30;;;;;;;8.72;97.52;101469.50;4903014;28;20721;-75
2021/04/18 06:47:53;;;;;;;9.90;5.30;;;;;;;8.95;96.18;101478.38;4904673;29;20657;-75
2021/04/18 06:50:20;;;;;;;8.90;5.50;;;;;;;9.12;95.08;101461.13;4902036;28;20210;-74
2021/04/18 06:52:47;;;;;;;10.47;5.60;;;;;;;9.12;95.56;101466.53;4919013;29;20485;-74
2021/04/18 06:55:17;;;;;;;9.77;5.77;;;;;;;9.34;95.18;101462.88;4912496;29;20196;-74
2021/04/18 06:57:44;;;;;;;8.33;5.33;;;;;;;9.30;93.00;101466.31;4917565;29;20722;-75
2021/04/18 07:00:16;;;;;;;9.90;5.60;;;;;;;9.35;92.50;101463.69;4906816;29;20241;-74
2021/04/18 07:02:45;;;;;;;8.40;5.20;;;;;;;9.41;92.43;101460.00;4913219;29;20219;-73
2021/04/18 07:05:15;;;;;;;9.47;5.30;;;;;;;9.38;91.56;101461.31;4931462;29;20670;-74
2021/04/18 07:07:46;;;;;;;12.93;5.37;;;;;;;9.28;91.99;101468.44;4917946;29;20198;-75
2021/04/18 07:10:28;;;;;;;9.83;5.40;;;;;;;9.39;91.69;101470.25;4914815;29;20201;-77
2021/04/18 07:13:06;;;;;;;10.67;5.30;;;;;;;9.41;92.09;101468.13;4898706;29;20192;-75
2021/04/18 07:15:41;;;;;;;10.40;5.03;;;;;;;9.52;92.50;101469.94;4907891;29;20308;-78
2021/04/18 07:18:07;;;;;;;10.13;5.63;;;;;;;9.85;91.62;101471.59;4911752;29;20191;-73
2021/04/18 07:20:34;;;;;;;10.40;5.60;;;;;;;9.94;88.84;101467.41;4904627;29;20242;-73
2021/04/18 07:23:26;;;;;;;10.03;5.30;;;;;;;9.83;89.66;101471.00;4902469;29;20234;-74
2021/04/18 07:25:52;;;;;;;10.63;5.67;;;;;;;9.73;89.31;101462.72;4915285;29;20223;-73
2021/04/18 07:28:23;;;;;;;10.87;5.20;;;;;;;10.02;87.77;101464.31;4899282;29;20188;-76
2021/04/18 07:30:50;;;;;;;8.93;5.10;;;;;;;10.12;86.75;101464.44;4892445;29;20816;-74
2021/04/18 07:33:17;;;;;;;9.40;4.77;;;;;;;10.31;85.42;101457.66;4886616;29;20195;-73
2021/04/18 07:35:46;;;;;;;13.90;4.83;;;;;;;10.21;84.51;101454.81;4901846;29;20229;-74
2021/04/18 07:38:28;;;;;;;7.07;4.70;;;;;;;10.53;83.86;101460.16;4934016;29;20187;-74
2021/04/18 07:41:17;;;;;;;8.10;4.70;;;;;;;9.98;84.79;101457.69;4907875;29;20800;-73
2021/04/18 07:43:44;;;;;;;6.73;4.93;;;;;;;9.99;86.12;101456.66;4886974;29;20192;-73
2021/04/18 07:46:10;;;;;;;7.70;4.67;;;;;;;9.98;87.18;101457.69;4901129;29;20749;-74
2021/04/18 07:48:36;;;;;;;10.23;5.20;;;;;;;10.19;85.79;101456.94;4901956;29;20191;-74
2021/04/18 07:51:04;;;;;;;9.13;4.73;;;;;;;10.26;86.28;101452.16;4898976;29;20231;-74
2021/04/18 07:53:30;;;;;;;10.40;4.93;;;;;;;10.07;87.51;101453.50;4897394;29;20200;-76
2021/04/18 07:55:57;;;;;;;8.00;4.37;;;;;;;10.22;84.46;101456.44;4897764;29;20264;-75
2021/04/18 07:58:26;;;;;;;11.60;5.23;;;;;;;10.36;84.66;101465.88;4915154;29;20708;-76
2021/04/18 08:00:55;;;;;;;9.20;4.87;;;;;;;10.43;83.02;101451.84;4900024;29;20278;-76
2021/04/18 08:03:22;;;;;;;8.33;5.07;;;;;;;10.66;82.77;101454.34;4916810;29;20203;-73
2021/04/18 08:05:51;;;;;;;8.83;4.53;;;;;;;10.41;83.71;101459.44;4895166;29;20722;-75
2021/04/18 08:08:21;;;;;;;9.97;4.67;;;;;;;10.49;83.67;101459.00;4898754;29;20203;-74
2021/04/18 08:10:48;;;;;;;9.57;5.40;;;;;;;10.52;83.16;101458.50;4879213;29;20302;-76
2021/04/18 08:13:21;;;;;;;10.23;4.70;;;;;;;10.53;83.13;101454.72;4876661;29;20196;-75
2021/04/18 08:15:58;;;;;;;9.60;4.50;;;;;;;10.81;82.62;101454.50;4897941;29;20865;-73
2021/04/18 08:18:27;;;;;;;9.53;4.43;;;;;;;10.68;80.93;101454.91;4920150;29;20251;-75
2021/04/18 08:20:57;;;;;;;7.17;4.67;;;;;;;10.77;81.47;101446.03;4918072;29;20287;-75
2021/04/18 08:23:46;;;;;;;11.30;4.63;;;;;;;10.79;79.31;101452.03;4918934;29;20713;-75
2021/04/18 08:26:20;;;;;;;9.43;4.67;;;;;;;10.96;79.70;101441.91;4889212;29;20709;-75
2021/04/18 08:29:02;;;;;;;9.17;4.77;;;;;;;10.95;79.36;101442.16;4885414;29;20670;-75
2021/04/18 08:32:03;;;;;;;6.07;4.13;;;;;;;11.12;78.54;101442.88;4898528;29;20235;-76
2021/04/18 08:34:52;;;;;;;8.30;4.30;;;;;;;11.15;77.28;101438.59;4917311;29;20266;-75
2021/04/18 08:37:23;;;;;;;10.37;4.13;;;;;;;11.14;76.94;101422.53;4899517;29;20231;-74
2021/04/18 08:41:03;;;;;;;7.07;4.10;;;;;;;11.13;76.73;101423.59;4916715;29;20228;-74
2021/04/18 08:43:35;;;;;;;9.00;5.20;;;;;;;11.20;76.26;101425.03;4924768;29;20224;-77
2021/04/18 08:46:13;;;;;;;6.13;4.10;;;;;;;11.20;75.69;101430.47;4917190;29;20231;-76
2021/04/18 08:48:48;;;;;;;6.43;3.73;;;;;;;11.53;75.19;101435.69;4886753;29;20223;-75
2021/04/18 08:51:26;;;;;;;8.20;3.90;;;;;;;11.60;73.98;101425.41;4894905;29;20763;-78
2021/04/18 08:54:18;;;;;;;8.33;4.30;;;;;;;11.94;73.61;101422.97;4891511;29;20206;-74
2021/04/18 08:57:32;;;;;;;7.37;4.03;;;;;;;11.89;70.98;101418.56;4910265;28;20291;-78
2021/04/18 09:00:33;;;;;;;7.07;4.57;;;;;;;12.13;71.56;101431.53;4926631;28;20246;-76
2021/04/18 09:03:24;;;;;;;5.90;3.63;;;;;;;12.20;70.46;101411.13;4898292;29;20689;-77
2021/04/18 09:06:32;;;;;;;7.17;4.33;;;;;;;11.89;71.79;101424.03;4885914;29;20239;-76
2021/04/18 09:09:22;;;;;;;6.97;4.10;;;;;;;12.15;73.17;101419.28;4885516;29;20248;-75
2021/04/18 09:12:03;;;;;;;6.90;3.93;;;;;;;12.49;71.08;101425.97;4896357;29;20722;-76
2021/04/18 09:15:18;;;;;;;8.03;3.80;;;;;;;12.33;68.46;101432.47;4902604;29;20674;-75
2021/04/18 09:17:59;;;;;;;8.40;3.77;;;;;;;12.48;69.05;101438.78;4918010;29;20361;-75
2021/04/18 09:20:43;;;;;;;6.47;3.87;;;;;;;12.62;67.60;101426.31;4919954;29;20662;-75
2021/04/18 09:27:05;;;;;;;6.20;3.57;;;;;;;12.79;67.44;101437.84;4917843;29;20230;-75
2021/04/18 09:29:37;;;;;;;6.47;3.87;;;;;;;12.69;67.00;101433.16;4896317;29;20227;-75
2021/04/18 09:32:20;;;;;;;6.00;3.47;;;;;;;12.67;67.07;101437.22;4907359;29;20296;-75
2021/04/18 09:35:10;;;;;;;5.53;3.37;;;;;;;12.64;66.44;101428.78;4909201;29;20688;-76
2021/04/18 09:38:09;;;;;;;4.93;3.17;;;;;;;13.05;66.42;101437.66;4877198;29;20225;-77
2021/04/18 09:41:17;;;;;;;4.07;3.27;;;;;;;13.12;65.31;101416.41;4893103;29;20243;-76
2021/04/18 09:44:08;;;;;;;6.20;4.37;;;;;;;13.13;66.08;101413.41;4888887;29;20205;-77
2021/04/18 09:47:03;;;;;;;5.53;3.50;;;;;;;13.55;62.86;101424.91;4898748;29;20219;-75
2021/04/18 09:49:58;;;;;;;5.67;3.40;;;;;;;13.37;63.25;101403.63;4891169;29;20210;-78
2021/04/18 09:52:43;;;;;;;7.57;3.53;;;;;;;13.44;63.48;101425.16;4887496;29;20638;-76
2021/04/18 09:55:35;;;;;;;5.43;3.60;;;;;;;13.56;64.89;101424.63;4884231;29;20208;-77
2021/04/18 10:00:08;;;;;;;4.67;3.20;;;;;;;13.21;63.12;101406.59;4929696;29;20199;-75
2021/04/18 10:02:33;;;;;;;6.03;3.53;;;;;;;13.89;62.32;101413.16;4842488;29;20297;-76
2021/04/18 10:06:00;;;;;;;4.97;3.70;;;;;;;14.20;60.06;101412.03;4927892;29;20206;-80
2021/04/18 10:09:14;;;;;;;5.17;3.20;;;;;;;14.23;61.52;101398.63;4930290;29;20250;-80
2021/04/18 10:12:07;;;;;;;7.30;3.20;;;;;;;14.04;61.18;101413.16;4898972;29;20290;-76
2021/04/18 10:15:00;;;;;;;5.67;3.40;;;;;;;14.19;60.23;101410.38;4883030;29;20207;-75
2021/04/18 10:17:58;;;;;;;7.23;3.10;;;;;;;14.09;59.73;101408.50;4907324;29;20255;-77
2021/04/18 10:20:37;;;;;;;3.73;2.80;;;;;;;14.42;59.23;101397.72;4896972;28;20223;-76
2021/04/18 10:24:08;;;;;;;7.77;3.30;;;;;;;14.51;58.03;101401.53;4935216;29;20246;-76
2021/04/18 10:27:18;;;;;;;5.87;3.67;;;;;;;14.52;58.06;101389.47;4929591;29;20716;-76
2021/04/18 10:30:11;;;;;;;5.37;3.13;;;;;;;14.64;58.51;101403.66;4909782;29;20347;-75
2021/04/18 10:33:03;;;;;;;7.97;3.47;;;;;;;14.65;57.45;101394.34;4904615;29;20227;-76
2021/04/18 10:35:38;;;;;;;5.33;3.30;;;;;;;14.77;57.06;101392.09;4906572;29;20612;-76
2021/04/18 10:38:35;;;;;;;4.57;2.90;;;;;;;14.99;56.96;101378.84;4913863;29;20724;-75
2021/04/18 10:41:27;;;;;;;4.50;2.93;;;;;;;14.99;54.86;101383.19;4888805;29;20740;-77
2021/04/18 10:44:18;;;;;;;5.57;3.20;;;;;;;15.15;56.64;101387.53;4909392;29;20832;-74
2021/04/18 10:47:19;;;;;;;6.97;3.23;;;;;;;15.10;55.36;101390.25;4909893;29;20231;-78
2021/04/18 10:50:14;;;;;;;5.67;3.50;;;;;;;15.10;55.81;101393.00;4900838;29;20218;-76
2021/04/18 10:53:00;;;;;;;6.33;3.00;;;;;;;15.38;54.86;101380.50;4940528;29;20219;-75
2021/04/18 10:55:38;;;;;;;5.23;3.20;;;;;;;15.11;54.75;101380.94;4924775;28;20233;-75
2021/04/18 11:01:31;;;;;;;4.67;3.30;;;;;;;15.41;54.18;101376.09;4937932;29;20224;-76
2021/04/18 11:04:18;;;;;;;4.80;3.10;;;;;;;15.72;53.04;101365.69;4936756;29;20203;-75
2021/04/18 11:07:30;;;;;;;5.97;3.43;;;;;;;15.55;53.42;101366.13;4945907;29;20724;-77
2021/04/18 11:10:20;;;;;;;4.40;3.20;;;;;;;15.57;52.44;101377.59;4911256;29;20231;-77
2021/04/18 11:13:07;;;;;;;5.50;3.90;;;;;;;15.82;53.15;101372.72;4911746;29;20223;-76
2021/04/18 11:16:03;;;;;;;5.13;3.10;;;;;;;15.76;51.80;101380.44;4929432;29;20311;-76
2021/04/18 11:18:49;;;;;;;3.23;2.93;;;;;;;16.24;53.51;101367.34;4925412;29;20739;-75
2021/04/18 11:21:29;;;;;;;4.55;2.97;;;;;;;15.99;52.28;101362.13;4888846;29;20279;-75
2021/04/18 11:24:21;;;;;;;4.00;3.27;;;;;;;16.16;51.25;101346.03;4892137;29;20192;-75
2021/04/18 11:26:53;;;;;;;6.63;3.75;;;;;;;16.26;50.76;101363.22;4885715;29;20451;-73
2021/04/18 11:29:20;;;;;;;7.60;4.90;;;;;;;16.68;51.71;101361.31;4902150;29;20191;-75
2021/04/18 11:31:47;;;;;;;9.67;8.20;;;;;;;16.37;51.61;101359.25;4901482;29;20235;-75
2021/04/18 11:34:13;;;;;;;7.03;4.18;;;;;;;16.11;52.46;101365.25;4899224;29;20220;-72
2021/04/18 11:36:44;;;;;;;6.43;3.80;;;;;;;15.78;53.59;101368.91;4906302;29;20230;-69
2021/04/18 11:39:10;;;;;;;7.27;4.50;;;;;;;15.49;55.83;101360.97;4918029;29;20227;-74
2021/04/18 11:41:39;;;;;;;7.43;4.05;;;;;;;15.64;56.43;101347.13;4901914;29;20243;-77
2021/04/18 11:44:06;;;;;;;8.43;4.43;;;;;;;15.80;56.93;101353.00;4888045;29;20199;-71
2021/04/18 11:46:33;;;;;;;5.37;4.10;;;;;;;15.87;54.77;101352.66;4871960;29;20227;-75
2021/04/18 11:49:00;;;;;;;4.38;3.50;;;;;;;16.01;54.08;101351.69;4889573;29;20192;-72
2021/04/18 11:51:28;;;;;;;5.90;3.25;;;;;;;16.18;53.02;101349.31;4904497;29;20235;-72
2021/04/18 11:53:55;;;;;;;5.28;3.10;;;;;;;16.78;52.07;101358.41;4923271;29;20219;-74
2021/04/18 11:56:23;;;;;;;5.03;3.03;;;;;;;17.38;50.49;101352.84;4905658;29;20235;-75
2021/04/18 11:59:08;;;;;;;6.07;2.85;;;;;;;17.09;50.25;101356.88;4895958;29;20212;-77
2021/04/18 12:01:47;;;;;;;6.90;3.50;;;;;;;17.41;48.46;101357.72;4904622;29;20238;-76
2021/04/18 12:04:16;;;;;;;4.10;3.10;;;;;;;17.57;48.98;101359.94;4906404;29;20191;-73
2021/04/18 12:06:44;;;;;;;7.18;3.97;;;;;;;16.98;49.83;101356.19;4898700;29;20305;-74